createdAt,value
2019-02-08T00:01:10.799Z,3.40
2019-02-08T00:03:38.807Z,3.40
2019-02-08T00:06:06.585Z,3.40
2019-02-08T00:08:34.355Z,3.40
2019-02-08T00:11:02.145Z,3.40
2019-02-08T00:13:29.914Z,3.40
2019-02-08T00:15:57.766Z,3.40
2019-02-08T00:18:25.586Z,3.40
2019-02-08T00:20:53.386Z,3.40
2019-02-08T00:23:26.596Z,3.40
2019-02-08T00:25:51.155Z,3.40
2019-02-08T00:28:18.988Z,3.30
2019-02-08T00:30:46.858Z,3.30
2019-02-08T00:33:14.645Z,3.30
2019-02-08T00:35:42.421Z,3.30
2019-02-08T00:38:10.187Z,3.30
2019-02-08T00:40:38.331Z,3.30
2019-02-08T00:43:06.162Z,3.30
2019-02-08T00:45:33.954Z,3.30
2019-02-08T00:48:01.740Z,3.30
2019-02-08T00:50:29.816Z,3.30
2019-02-08T00:52:57.746Z,3.30
2019-02-08T00:55:25.939Z,3.30
2019-02-08T00:57:53.977Z,3.30
2019-02-08T01:00:22.851Z,3.30
2019-02-08T01:02:50.952Z,3.30
2019-02-08T01:05:19.195Z,3.20
2019-02-08T01:07:47.097Z,3.20
2019-02-08T01:10:17.275Z,3.20
2019-02-08T01:12:45.118Z,3.20
2019-02-08T01:15:13.398Z,3.20
2019-02-08T01:17:41.186Z,3.20
2019-02-08T01:20:10.761Z,3.10
2019-02-08T01:22:38.534Z,3.10
2019-02-08T01:25:07.767Z,3.10
2019-02-08T01:27:35.590Z,3.00
2019-02-08T01:30:05.044Z,3.00
2019-02-08T01:32:32.810Z,3.00
2019-02-08T01:35:00.661Z,3.00
2019-02-08T01:37:28.418Z,3.00
2019-02-08T01:39:56.272Z,3.00
2019-02-08T01:42:24.054Z,3.10
2019-02-08T01:44:51.874Z,3.00
2019-02-08T01:47:19.646Z,3.10
2019-02-08T01:49:47.538Z,3.10
2019-02-08T01:52:15.323Z,3.10
2019-02-08T01:54:43.167Z,3.10
2019-02-08T01:57:10.975Z,3.20
2019-02-08T01:59:38.746Z,3.20
2019-02-08T02:02:06.540Z,3.20
2019-02-08T02:04:34.302Z,3.30
2019-02-08T02:07:02.166Z,3.30
2019-02-08T02:09:30.223Z,3.30
2019-02-08T02:11:58.017Z,3.30
2019-02-08T02:14:25.773Z,3.20
2019-02-08T02:16:53.558Z,3.20
2019-02-08T02:19:21.428Z,3.10
2019-02-08T02:21:49.336Z,3.00
2019-02-08T02:24:17.239Z,3.00
2019-02-08T02:26:45.070Z,3.00
2019-02-08T02:29:12.843Z,3.00
2019-02-08T02:31:40.625Z,2.90
2019-02-08T02:34:08.389Z,2.90
2019-02-08T02:36:36.179Z,2.90
2019-02-08T02:39:07.039Z,2.90
2019-02-08T02:41:34.912Z,2.90
2019-02-08T02:44:02.752Z,2.80
2019-02-08T02:46:30.839Z,2.80
2019-02-08T02:48:58.628Z,2.80
2019-02-08T02:51:26.414Z,2.80
2019-02-08T02:53:54.243Z,2.80
2019-02-08T02:56:22.040Z,2.80
2019-02-08T02:58:49.810Z,2.80
2019-02-08T03:01:17.654Z,2.80
2019-02-08T03:03:45.434Z,2.80
2019-02-08T03:06:13.298Z,2.80
2019-02-08T03:08:41.110Z,2.90
2019-02-08T03:11:11.273Z,2.80
2019-02-08T03:13:39.119Z,2.80
2019-02-08T03:16:07.011Z,2.80
2019-02-08T03:18:34.770Z,2.80
2019-02-08T03:21:02.560Z,2.70
2019-02-08T03:23:30.369Z,2.70
2019-02-08T03:25:58.153Z,2.70
2019-02-08T03:28:26.105Z,2.70
2019-02-08T03:30:58.019Z,2.60
2019-02-08T03:33:25.948Z,2.60
2019-02-08T03:35:53.833Z,2.60
2019-02-08T03:38:21.657Z,2.70
2019-02-08T03:40:49.690Z,2.70
2019-02-08T03:43:17.832Z,2.70
2019-02-08T03:45:46.614Z,2.80
2019-02-08T03:48:14.487Z,2.70
2019-02-08T03:50:42.427Z,2.70
2019-02-08T03:53:10.562Z,2.70
2019-02-08T03:55:39.039Z,2.80
2019-02-08T03:58:07.188Z,2.70
2019-02-08T04:00:47.961Z,2.70
2019-02-08T04:03:15.834Z,2.70
2019-02-08T04:05:43.623Z,2.80
2019-02-08T04:08:11.482Z,2.70
2019-02-08T04:10:39.246Z,2.80
2019-02-08T04:13:07.291Z,2.80
2019-02-08T04:15:35.240Z,2.80
2019-02-08T04:18:03.035Z,2.80
2019-02-08T04:20:30.892Z,2.80
2019-02-08T04:22:58.774Z,2.80
2019-02-08T04:25:26.535Z,2.70
2019-02-08T04:27:54.498Z,2.70
2019-02-08T04:30:26.539Z,2.80
2019-02-08T04:32:54.394Z,2.80
2019-02-08T04:35:22.242Z,2.80
2019-02-08T04:37:50.117Z,2.90
2019-02-08T04:40:18.562Z,2.90
2019-02-08T04:42:46.542Z,3.00
2019-02-08T04:45:14.544Z,3.00
2019-02-08T04:47:42.339Z,3.00
2019-02-08T04:50:11.567Z,3.00
2019-02-08T04:52:39.347Z,3.00
2019-02-08T04:55:07.571Z,3.10
2019-02-08T04:57:35.378Z,3.00
2019-02-08T05:00:04.763Z,3.00
2019-02-08T05:02:32.651Z,3.00
2019-02-08T05:05:00.427Z,3.00
2019-02-08T05:07:28.726Z,3.00
2019-02-08T05:09:56.494Z,3.00
2019-02-08T05:12:24.327Z,3.10
2019-02-08T05:14:52.183Z,3.10
2019-02-08T05:17:20.026Z,3.00
2019-02-08T05:19:47.799Z,3.00
2019-02-08T05:22:15.683Z,3.00
2019-02-08T05:24:45.995Z,3.00
2019-02-08T05:27:13.076Z,3.00
2019-02-08T05:29:40.921Z,3.00
2019-02-08T05:32:08.693Z,2.90
2019-02-08T05:34:36.556Z,2.90
2019-02-08T05:37:04.642Z,2.90
2019-02-08T05:39:32.409Z,2.90
2019-02-08T05:42:00.228Z,2.90
2019-02-08T05:44:28.105Z,2.90
2019-02-08T05:46:55.983Z,2.90
2019-02-08T05:49:23.780Z,2.90
2019-02-08T05:51:51.607Z,2.90
2019-02-08T05:54:19.496Z,2.90
2019-02-08T05:56:47.343Z,2.90
2019-02-08T05:59:15.231Z,2.90
2019-02-08T06:01:43.015Z,2.90
2019-02-08T06:04:10.863Z,2.90
2019-02-08T06:06:38.640Z,2.90
2019-02-08T06:09:07.676Z,2.90
2019-02-08T06:11:35.836Z,2.90
2019-02-08T06:14:04.344Z,2.80
2019-02-08T06:16:32.306Z,2.80
2019-02-08T06:19:00.083Z,2.80
2019-02-08T06:21:27.949Z,2.80
2019-02-08T06:23:55.847Z,2.80
2019-02-08T06:26:23.614Z,2.80
2019-02-08T06:28:51.406Z,2.90
2019-02-08T06:31:19.176Z,2.80
2019-02-08T06:33:47.052Z,2.90
2019-02-08T06:36:14.823Z,2.90
2019-02-08T06:38:42.615Z,2.90
2019-02-08T06:41:10.476Z,2.90
2019-02-08T06:43:38.352Z,2.90
2019-02-08T06:46:06.237Z,2.90
2019-02-08T06:48:34.139Z,2.90
2019-02-08T06:51:01.937Z,2.90
2019-02-08T06:53:29.710Z,2.90
2019-02-08T06:55:57.486Z,2.90
2019-02-08T06:58:59.675Z,3.00
2019-02-08T07:01:45.082Z,3.00
2019-02-08T07:04:30.895Z,3.00
2019-02-08T07:07:20.790Z,3.00
2019-02-08T07:10:19.799Z,3.00
2019-02-08T07:13:06.363Z,3.00
2019-02-08T07:15:53.374Z,3.10
2019-02-08T07:18:31.059Z,3.30
2019-02-08T07:21:07.845Z,3.40
2019-02-08T07:23:43.018Z,3.40
2019-02-08T07:26:21.506Z,3.40
2019-02-08T07:28:58.565Z,3.30
2019-02-08T07:31:49.747Z,3.40
2019-02-08T07:34:25.803Z,3.40
2019-02-08T07:37:03.561Z,3.40
2019-02-08T07:39:50.460Z,3.50
2019-02-08T07:42:26.426Z,3.50
2019-02-08T07:45:08.416Z,3.60
2019-02-08T07:47:42.846Z,3.70
2019-02-08T07:50:35.278Z,3.80
2019-02-08T07:53:17.395Z,3.90
2019-02-08T07:55:52.613Z,4.10
2019-02-08T07:58:27.061Z,4.30
2019-02-08T08:01:10.383Z,4.50
2019-02-08T08:04:01.655Z,4.70
2019-02-08T08:06:35.627Z,4.90
2019-02-08T08:09:15.641Z,5.00
2019-02-08T08:12:02.160Z,5.20
2019-02-08T08:14:38.721Z,5.30
2019-02-08T08:17:17.515Z,5.30
2019-02-08T08:20:00.267Z,5.30
2019-02-08T08:22:48.739Z,5.40
2019-02-08T08:25:35.262Z,5.40
2019-02-08T08:28:17.962Z,5.50
2019-02-08T08:30:52.482Z,5.60
2019-02-08T08:33:26.814Z,5.60
2019-02-08T08:38:47.607Z,5.80
2019-02-08T08:41:25.579Z,5.80
2019-02-08T08:44:11.452Z,5.90
2019-02-08T08:47:17.066Z,5.80
2019-02-08T08:50:05.222Z,5.80
2019-02-08T08:52:38.891Z,5.80
2019-02-08T08:55:13.881Z,5.90
2019-02-08T08:58:00.966Z,6.00
2019-02-08T09:00:47.102Z,5.90
2019-02-08T09:03:50.409Z,6.10
2019-02-08T09:06:23.727Z,6.20
2019-02-08T09:09:09.492Z,6.50
2019-02-08T09:11:51.920Z,6.70
2019-02-08T09:14:38.297Z,6.80
2019-02-08T09:17:25.353Z,6.80
2019-02-08T09:20:12.476Z,6.80
2019-02-08T09:23:18.487Z,6.90
2019-02-08T09:25:54.811Z,6.90
2019-02-08T09:28:50.947Z,6.90
2019-02-08T09:31:28.911Z,7.00
2019-02-08T09:34:19.134Z,7.10
2019-02-08T09:37:13.239Z,7.20
2019-02-08T09:39:49.853Z,7.10
2019-02-08T09:42:36.100Z,7.10
2019-02-08T09:45:26.708Z,7.10
2019-02-08T09:48:12.836Z,7.10
2019-02-08T09:51:06.337Z,7.10
2019-02-08T09:54:05.567Z,7.20
2019-02-08T09:56:51.402Z,7.30
2019-02-08T09:59:38.576Z,7.40
2019-02-08T10:02:24.391Z,7.50
2019-02-08T10:05:03.267Z,7.60
2019-02-08T10:07:49.205Z,7.60
2019-02-08T10:10:36.326Z,7.70
2019-02-08T10:13:29.454Z,7.80
2019-02-08T10:16:20.195Z,7.80
2019-02-08T10:18:59.019Z,7.80
2019-02-08T10:21:45.142Z,7.80
2019-02-08T10:24:19.594Z,7.80
2019-02-08T10:26:59.666Z,7.90
2019-02-08T10:29:46.963Z,7.90
2019-02-08T10:32:39.831Z,7.90
2019-02-08T10:35:26.069Z,8.00
2019-02-08T10:38:22.317Z,8.00
2019-02-08T10:41:08.101Z,8.00
2019-02-08T10:44:03.191Z,8.00
2019-02-08T10:46:54.674Z,8.00
2019-02-08T10:49:44.866Z,8.10
2019-02-08T10:52:43.880Z,8.30
2019-02-08T10:55:22.619Z,8.50
2019-02-08T10:58:24.823Z,8.60
2019-02-08T11:01:10.576Z,8.70
2019-02-08T11:03:56.695Z,8.70
2019-02-08T11:06:42.762Z,8.70
2019-02-08T11:09:26.233Z,8.70
2019-02-08T11:12:12.080Z,8.70
2019-02-08T11:14:47.940Z,8.90
2019-02-08T11:17:44.175Z,9.00
2019-02-08T11:20:11.960Z,9.10
2019-02-08T11:22:39.743Z,9.10
2019-02-08T11:25:07.817Z,9.20
2019-02-08T11:27:35.667Z,9.30
2019-02-08T11:30:05.845Z,9.20
2019-02-08T11:32:43.203Z,9.20
2019-02-08T11:35:03.892Z,9.20
2019-02-08T11:37:31.650Z,9.30
2019-02-08T11:39:59.506Z,9.50
2019-02-08T11:42:27.359Z,9.50
2019-02-08T11:44:55.176Z,9.50
2019-02-08T11:47:22.951Z,9.40
2019-02-08T11:49:50.771Z,9.20
2019-02-08T11:52:18.732Z,9.20
2019-02-08T11:54:46.553Z,9.20
2019-02-08T11:57:14.333Z,9.30
2019-02-08T11:59:42.461Z,9.30
2019-02-08T12:02:10.273Z,9.40
2019-02-08T12:04:38.095Z,9.50
2019-02-08T12:07:05.976Z,9.60
2019-02-08T12:09:33.801Z,9.50
2019-02-08T12:12:01.690Z,9.40
2019-02-08T12:14:30.555Z,9.30
2019-02-08T12:16:58.382Z,9.40
2019-02-08T12:19:26.312Z,9.50
2019-02-08T12:21:54.173Z,9.60
2019-02-08T12:24:22.082Z,9.70
2019-02-08T12:26:49.902Z,9.80
2019-02-08T12:29:17.719Z,9.80
2019-02-08T12:31:45.547Z,9.70
2019-02-08T12:34:13.498Z,9.70
2019-02-08T12:36:41.454Z,9.70
2019-02-08T12:39:10.263Z,9.60
2019-02-08T12:41:38.174Z,9.60
2019-02-08T12:44:06.308Z,9.40
2019-02-08T12:46:34.075Z,9.30
2019-02-08T12:49:01.985Z,9.40
2019-02-08T12:51:29.818Z,9.40
2019-02-08T12:53:57.727Z,9.40
2019-02-08T12:56:25.559Z,9.50
2019-02-08T12:58:53.468Z,9.60
2019-02-08T13:01:21.290Z,9.50
2019-02-08T13:03:49.174Z,9.40
2019-02-08T13:06:17.019Z,9.30
2019-02-08T13:08:44.803Z,9.30
2019-02-08T13:11:12.691Z,9.30
2019-02-08T13:13:40.779Z,9.20
2019-02-08T13:16:08.646Z,9.30
2019-02-08T13:18:36.755Z,9.30
2019-02-08T13:21:04.669Z,9.40
2019-02-08T13:23:32.511Z,9.50
2019-02-08T13:26:00.336Z,9.40
2019-02-08T13:28:28.400Z,9.40
2019-02-08T13:30:56.204Z,9.30
2019-02-08T13:33:23.980Z,9.40
2019-02-08T13:35:51.883Z,9.30
2019-02-08T13:38:19.719Z,9.40
2019-02-08T13:40:47.791Z,9.40
2019-02-08T13:43:15.637Z,9.40
2019-02-08T13:45:43.557Z,9.30
2019-02-08T13:48:11.459Z,9.40
2019-02-08T13:50:39.320Z,9.50
2019-02-08T13:53:07.111Z,9.50
2019-02-08T13:55:34.921Z,9.50
2019-02-08T13:58:02.768Z,9.40
2019-02-08T14:00:32.007Z,9.30
2019-02-08T14:03:00.182Z,9.30
2019-02-08T14:05:28.364Z,9.30
2019-02-08T14:07:56.315Z,9.20
2019-02-08T14:10:24.177Z,9.20
2019-02-08T14:12:52.148Z,9.10
2019-02-08T14:15:21.197Z,9.20
2019-02-08T14:17:49.169Z,9.30
2019-02-08T14:20:18.482Z,9.30
2019-02-08T14:22:46.375Z,9.30
2019-02-08T14:25:14.774Z,9.40
2019-02-08T14:27:42.766Z,9.50
2019-02-08T14:30:13.247Z,9.50
2019-02-08T14:32:41.069Z,9.50
2019-02-08T14:35:09.542Z,9.50
2019-02-08T14:37:37.367Z,9.40
2019-02-08T14:40:06.139Z,9.30
2019-02-08T14:42:34.031Z,9.20
2019-02-08T14:45:01.934Z,9.20
2019-02-08T14:47:29.819Z,9.10
2019-02-08T14:49:57.740Z,9.00
2019-02-08T14:52:25.666Z,9.00
2019-02-08T14:54:53.462Z,8.90
2019-02-08T14:57:21.464Z,8.80
2019-02-08T14:59:49.327Z,8.70
2019-02-08T15:02:17.118Z,8.60
2019-02-08T15:04:45.030Z,8.60
2019-02-08T15:07:12.874Z,8.50
2019-02-08T15:09:40.993Z,8.50
2019-02-08T15:12:09.627Z,8.50
2019-02-08T15:14:37.467Z,8.60
2019-02-08T15:17:05.239Z,8.50
2019-02-08T15:19:33.064Z,8.50
2019-02-08T15:22:00.891Z,8.50
2019-02-08T15:24:28.726Z,8.50
2019-02-08T15:26:56.504Z,8.50
2019-02-08T15:29:24.355Z,8.60
2019-02-08T15:31:52.139Z,8.60
2019-02-08T15:34:19.949Z,8.50
2019-02-08T15:36:49.398Z,8.50
2019-02-08T15:39:17.434Z,8.50
2019-02-08T15:41:45.250Z,8.50
2019-02-08T15:44:13.071Z,8.50
2019-02-08T15:46:40.875Z,8.40
2019-02-08T15:49:08.811Z,8.40
2019-02-08T15:51:36.834Z,8.40
2019-02-08T15:54:04.697Z,8.40
2019-02-08T15:56:32.557Z,8.40
2019-02-08T15:59:00.396Z,8.30
2019-02-08T16:01:28.241Z,8.30
2019-02-08T16:03:56.067Z,8.30
2019-02-08T16:06:23.834Z,8.20
2019-02-08T16:08:51.958Z,8.20
2019-02-08T16:11:19.738Z,8.20
2019-02-08T16:13:47.553Z,8.20
2019-02-08T16:16:15.730Z,8.20
2019-02-08T16:18:43.569Z,8.10
2019-02-08T16:21:11.414Z,8.10
2019-02-08T16:23:39.225Z,8.10
2019-02-08T16:26:07.079Z,8.20
2019-02-08T16:28:34.901Z,8.10
2019-02-08T16:31:02.869Z,8.10
2019-02-08T16:33:30.666Z,8.10
2019-02-08T16:35:58.723Z,8.10
2019-02-08T16:38:26.561Z,8.10
2019-02-08T16:40:54.409Z,8.10
2019-02-08T16:43:22.195Z,8.10
2019-02-08T16:45:50.053Z,8.10
2019-02-08T16:48:18.240Z,8.10
2019-02-08T16:50:46.139Z,8.10
2019-02-08T16:53:14.205Z,8.10
2019-02-08T16:55:42.110Z,8.10
2019-02-08T16:58:10.547Z,8.10
2019-02-08T17:00:38.568Z,8.10
2019-02-08T17:03:07.512Z,8.00
2019-02-08T17:05:35.797Z,8.10
2019-02-08T17:08:04.353Z,8.10
2019-02-08T17:10:32.363Z,8.10
2019-02-08T17:13:00.140Z,8.10
2019-02-08T17:15:28.176Z,8.00
2019-02-08T17:17:56.161Z,8.00
2019-02-08T17:20:28.366Z,8.00
2019-02-08T17:22:56.193Z,8.00
2019-02-08T17:25:24.290Z,8.00
2019-02-08T17:27:55.459Z,8.00
2019-02-08T17:30:21.982Z,8.00
2019-02-08T17:32:50.015Z,8.00
2019-02-08T17:35:17.945Z,8.00
2019-02-08T17:37:45.758Z,7.90
2019-02-08T17:40:14.855Z,7.90
2019-02-08T17:42:42.739Z,7.90
2019-02-08T17:45:11.286Z,7.80
2019-02-08T17:47:39.141Z,7.80
2019-02-08T17:50:08.143Z,7.80
2019-02-08T17:52:35.938Z,7.80
2019-02-08T17:55:04.911Z,7.80
2019-02-08T17:57:32.702Z,7.70
2019-02-08T18:00:00.631Z,7.70
2019-02-08T18:02:28.454Z,7.70
2019-02-08T18:04:56.391Z,7.70
2019-02-08T18:07:24.157Z,7.60
2019-02-08T18:09:51.965Z,7.60
2019-02-08T18:12:19.817Z,7.60
2019-02-08T18:14:47.591Z,7.60
2019-02-08T18:17:15.485Z,7.60
2019-02-08T18:19:43.324Z,7.60
2019-02-08T18:22:11.243Z,7.70
2019-02-08T18:24:39.064Z,7.60
2019-02-08T18:27:06.975Z,7.70
2019-02-08T18:29:34.773Z,7.70
2019-02-08T18:32:02.795Z,7.60
2019-02-08T18:34:30.698Z,7.60
2019-02-08T18:36:58.517Z,7.50
2019-02-08T18:39:26.351Z,7.40
2019-02-08T18:41:54.286Z,7.40
2019-02-08T18:44:22.087Z,7.30
2019-02-08T18:46:50.001Z,7.20
2019-02-08T18:49:17.834Z,7.10
2019-02-08T18:51:45.803Z,7.10
2019-02-08T18:54:13.663Z,7.00
2019-02-08T18:56:41.483Z,7.00
2019-02-08T18:59:09.295Z,6.90
2019-02-08T19:01:37.219Z,6.80
2019-02-08T19:04:05.021Z,6.80
2019-02-08T19:06:32.965Z,6.70
2019-02-08T19:09:00.762Z,6.70
2019-02-08T19:11:28.586Z,6.60
2019-02-08T19:13:56.395Z,6.60
2019-02-08T19:16:24.307Z,6.50
2019-02-08T19:18:52.097Z,6.50
2019-02-08T19:21:19.918Z,6.50
2019-02-08T19:23:47.846Z,6.50
2019-02-08T19:26:15.799Z,6.40
2019-02-08T19:28:43.599Z,6.40
2019-02-08T19:31:11.417Z,6.40
2019-02-08T19:33:39.347Z,6.30
2019-02-08T19:36:07.247Z,6.30
2019-02-08T19:38:35.398Z,6.30
2019-02-08T19:41:03.228Z,6.30
2019-02-08T19:43:31.266Z,6.20
2019-02-08T19:45:59.167Z,6.20
2019-02-08T19:48:27.095Z,6.20
2019-02-08T19:50:55.030Z,6.20
2019-02-08T19:53:22.844Z,6.10
2019-02-08T19:55:50.651Z,6.10
2019-02-08T19:58:18.974Z,6.10
2019-02-08T20:00:46.899Z,6.10
2019-02-08T20:03:15.144Z,6.10
2019-02-08T20:05:43.013Z,6.00
2019-02-08T20:08:11.739Z,6.00
2019-02-08T20:10:40.443Z,6.00
2019-02-08T20:13:08.393Z,6.00
2019-02-08T20:15:36.330Z,6.00
2019-02-08T20:18:04.488Z,6.00
2019-02-08T20:20:32.307Z,6.10
2019-02-08T20:23:00.679Z,6.10
2019-02-08T20:25:29.474Z,6.10
2019-02-08T20:27:57.482Z,6.10
2019-02-08T20:30:25.879Z,6.00
2019-02-08T20:32:53.869Z,6.10
2019-02-08T20:35:22.878Z,6.10
2019-02-08T20:37:51.075Z,6.00
2019-02-08T20:40:20.075Z,6.00
2019-02-08T20:42:48.154Z,6.00
2019-02-08T20:45:17.434Z,6.00
2019-02-08T20:47:45.518Z,6.10
2019-02-08T20:50:13.689Z,6.10
2019-02-08T20:52:41.503Z,6.10
2019-02-08T20:55:09.566Z,6.10
2019-02-08T20:57:37.490Z,6.10
2019-02-08T21:00:09.088Z,6.10
2019-02-08T21:02:37.397Z,6.10
2019-02-08T21:05:05.449Z,6.10
2019-02-08T21:07:33.614Z,6.10
2019-02-08T21:10:01.466Z,6.10
2019-02-08T21:12:29.307Z,6.00
2019-02-08T21:14:58.212Z,6.00
2019-02-08T21:17:26.572Z,6.00
2019-02-08T21:19:54.438Z,6.00
2019-02-08T21:22:22.343Z,6.00
2019-02-08T21:24:50.171Z,6.00
2019-02-08T21:27:18.098Z,6.00
2019-02-08T21:29:45.927Z,5.90
2019-02-08T21:32:13.803Z,5.80
2019-02-08T21:34:41.711Z,5.80
2019-02-08T21:37:09.543Z,5.80
2019-02-08T21:39:37.368Z,5.80
2019-02-08T21:42:05.302Z,5.80
2019-02-08T21:44:33.237Z,5.80
2019-02-08T21:47:01.061Z,5.70
2019-02-08T21:49:28.979Z,5.70
2019-02-08T21:51:56.800Z,5.70
2019-02-08T21:54:24.716Z,5.70
2019-02-08T21:56:52.622Z,5.70
2019-02-08T21:59:20.443Z,5.60
2019-02-08T22:01:48.538Z,5.60
2019-02-08T22:04:16.695Z,5.60
2019-02-08T22:06:44.521Z,5.60
2019-02-08T22:09:12.427Z,5.60
2019-02-08T22:11:40.254Z,5.60
2019-02-08T22:14:08.186Z,5.60
2019-02-08T22:16:36.071Z,5.50
2019-02-08T22:19:03.903Z,5.50
2019-02-08T22:21:31.812Z,5.40
2019-02-08T22:23:59.655Z,5.40
2019-02-08T22:26:27.734Z,5.40
2019-02-08T22:28:55.566Z,5.40
2019-02-08T22:31:23.393Z,5.40
2019-02-08T22:33:51.843Z,5.30
2019-02-08T22:36:19.695Z,5.20
2019-02-08T22:38:47.657Z,5.20
2019-02-08T22:41:15.802Z,5.10
2019-02-08T22:43:43.676Z,5.10
2019-02-08T22:46:11.538Z,5.10
2019-02-08T22:48:39.410Z,5.10
2019-02-08T22:53:35.122Z,4.90
2019-02-08T22:56:03.074Z,5.00
2019-02-08T22:58:30.991Z,4.90
2019-02-08T23:01:18.243Z,4.90
2019-02-08T23:03:46.200Z,4.90
2019-02-08T23:06:14.051Z,4.90
2019-02-08T23:08:41.905Z,4.80
2019-02-08T23:11:09.778Z,4.90
2019-02-08T23:13:37.571Z,4.90
2019-02-08T23:16:05.662Z,5.00
2019-02-08T23:18:33.499Z,5.00
2019-02-08T23:21:01.329Z,5.00
2019-02-08T23:23:29.213Z,5.10
2019-02-08T23:25:57.053Z,5.20
2019-02-08T23:28:24.956Z,5.30
2019-02-08T23:30:52.811Z,5.30
2019-02-08T23:33:20.688Z,5.30
2019-02-08T23:35:48.643Z,5.40
2019-02-08T23:38:16.529Z,5.40
2019-02-08T23:40:44.381Z,5.50
2019-02-08T23:43:12.239Z,5.50
2019-02-08T23:45:40.123Z,5.60
2019-02-08T23:48:07.973Z,5.60
2019-02-08T23:50:35.854Z,5.60
2019-02-08T23:53:04.986Z,5.70
2019-02-08T23:55:32.818Z,5.70
2019-02-08T23:58:00.671Z,5.70
